sensor_id;sensor_type;location;lat;lon;timestamp;pressure;altitude;pressure_sealevel;temperature;humidity
60725;BME280;59881;36.722;-4.462;2023-04-27T00:01:18;100750.06;;;18.30;51.69
60725;BME280;59881;36.722;-4.462;2023-04-27T00:03:44;100813.38;;;18.73;51.61
60725;BME280;59881;36.722;-4.462;2023-04-27T00:06:10;100810.53;;;18.75;51.71
60725;BME280;59881;36.722;-4.462;2023-04-27T00:08:36;100821.19;;;18.75;51.74
60725;BME280;59881;36.722;-4.462;2023-04-27T00:11:02;100615.00;;;17.57;52.15
60725;BME280;59881;36.722;-4.462;2023-04-27T00:13:28;100547.03;;;17.07;52.36
60725;BME280;59881;36.722;-4.462;2023-04-27T00:15:53;100639.75;;;17.67;54.31
60725;BME280;59881;36.722;-4.462;2023-04-27T00:18:19;100585.75;;;17.47;56.55
60725;BME280;59881;36.722;-4.462;2023-04-27T00:20:44;100820.63;;;18.81;57.79
60725;BME280;59881;36.722;-4.462;2023-04-27T00:23:10;100810.53;;;18.75;58.58
60725;BME280;59881;36.722;-4.462;2023-04-27T00:25:36;100650.66;;;17.74;59.70
60725;BME280;59881;36.722;-4.462;2023-04-27T00:28:01;100806.19;;;18.74;61.20
60725;BME280;59881;36.722;-4.462;2023-04-27T00:30:27;100793.00;;;18.72;61.70
60725;BME280;59881;36.722;-4.462;2023-04-27T00:32:52;100651.63;;;17.83;62.50
60725;BME280;59881;36.722;-4.462;2023-04-27T00:35:18;100791.94;;;18.65;62.88
60725;BME280;59881;36.722;-4.462;2023-04-27T00:37:43;100786.06;;;18.61;63.02
60725;BME280;59881;36.722;-4.462;2023-04-27T00:40:09;100598.94;;;17.21;63.18
60725;BME280;59881;36.722;-4.462;2023-04-27T00:42:35;100791.63;;;18.50;63.40
60725;BME280;59881;36.722;-4.462;2023-04-27T00:45:01;100795.56;;;18.46;63.64
60725;BME280;59881;36.722;-4.462;2023-04-27T00:47:29;100684.47;;;17.73;63.35
60725;BME280;59881;36.722;-4.462;2023-04-27T00:49:54;100795.66;;;18.36;63.57
60725;BME280;59881;36.722;-4.462;2023-04-27T00:52:20;100803.72;;;18.27;63.40
60725;BME280;59881;36.722;-4.462;2023-04-27T00:54:48;100805.72;;;18.15;63.30
60725;BME280;59881;36.722;-4.462;2023-04-27T00:57:14;100835.94;;;18.06;63.09
60725;BME280;59881;36.722;-4.462;2023-04-27T00:59:40;100539.13;;;16.31;62.45
60725;BME280;59881;36.722;-4.462;2023-04-27T01:02:06;100575.66;;;16.39;61.94
60725;BME280;59881;36.722;-4.462;2023-04-27T01:04:31;100807.28;;;17.80;61.75
60725;BME280;59881;36.722;-4.462;2023-04-27T01:06:58;100807.41;;;17.78;60.99
60725;BME280;59881;36.722;-4.462;2023-04-27T01:09:23;100803.91;;;17.78;60.81
60725;BME280;59881;36.722;-4.462;2023-04-27T01:11:49;100827.19;;;17.76;60.77
60725;BME280;59881;36.722;-4.462;2023-04-27T01:14:14;100808.56;;;17.76;61.05
60725;BME280;59881;36.722;-4.462;2023-04-27T01:16:41;100677.63;;;16.96;61.39
60725;BME280;59881;36.722;-4.462;2023-04-27T01:19:07;100680.41;;;16.94;61.33
60725;BME280;59881;36.722;-4.462;2023-04-27T01:21:33;100707.28;;;17.01;60.91
60725;BME280;59881;36.722;-4.462;2023-04-27T01:23:58;100743.34;;;17.33;60.59
60725;BME280;59881;36.722;-4.462;2023-04-27T01:26:24;100826.63;;;17.72;60.85
60725;BME280;59881;36.722;-4.462;2023-04-27T01:28:50;100851.44;;;17.73;61.70
60725;BME280;59881;36.722;-4.462;2023-04-27T01:31:15;100873.75;;;17.72;61.77
60725;BME280;59881;36.722;-4.462;2023-04-27T01:33:41;100829.44;;;17.71;62.26
60725;BME280;59881;36.722;-4.462;2023-04-27T01:36:08;100866.75;;;17.71;62.60
60725;BME280;59881;36.722;-4.462;2023-04-27T01:38:34;100501.69;;;15.76;63.02
60725;BME280;59881;36.722;-4.462;2023-04-27T01:41:03;100822.16;;;17.73;63.32
60725;BME280;59881;36.722;-4.462;2023-04-27T01:43:32;100816.97;;;17.71;63.38
60725;BME280;59881;36.722;-4.462;2023-04-27T01:46:05;100645.59;;;16.59;63.10
60725;BME280;59881;36.722;-4.462;2023-04-27T01:48:30;100527.84;;;15.80;63.20
60725;BME280;59881;36.722;-4.462;2023-04-27T01:50:56;100826.81;;;17.61;63.39
60725;BME280;59881;36.722;-4.462;2023-04-27T01:53:22;100677.22;;;16.42;63.41
60725;BME280;59881;36.722;-4.462;2023-04-27T01:55:47;100827.81;;;17.50;63.32
60725;BME280;59881;36.722;-4.462;2023-04-27T01:58:13;100767.94;;;17.07;63.61
60725;BME280;59881;36.722;-4.462;2023-04-27T02:00:38;100628.94;;;16.18;63.65
60725;BME280;59881;36.722;-4.462;2023-04-27T02:03:04;100583.91;;;15.87;64.17
60725;BME280;59881;36.722;-4.462;2023-04-27T02:05:30;100542.34;;;15.57;64.05
60725;BME280;59881;36.722;-4.462;2023-04-27T02:07:55;100852.94;;;17.38;64.23
60725;BME280;59881;36.722;-4.462;2023-04-27T02:10:21;100764.03;;;16.82;64.40
60725;BME280;59881;36.722;-4.462;2023-04-27T02:12:47;100835.72;;;17.32;64.65
60725;BME280;59881;36.722;-4.462;2023-04-27T02:15:13;100844.69;;;17.31;64.88
60725;BME280;59881;36.722;-4.462;2023-04-27T02:17:38;100744.81;;;16.69;64.72
60725;BME280;59881;36.722;-4.462;2023-04-27T02:20:05;100841.47;;;17.28;64.67
60725;BME280;59881;36.722;-4.462;2023-04-27T02:22:32;100639.31;;;16.01;64.66
60725;BME280;59881;36.722;-4.462;2023-04-27T02:24:58;100504.97;;;15.19;64.43
60725;BME280;59881;36.722;-4.462;2023-04-27T02:27:24;100839.75;;;17.27;64.38
60725;BME280;59881;36.722;-4.462;2023-04-27T02:29:49;100670.09;;;16.23;64.39
60725;BME280;59881;36.722;-4.462;2023-04-27T02:32:15;100613.69;;;15.81;64.12
60725;BME280;59881;36.722;-4.462;2023-04-27T02:34:40;100604.97;;;15.69;63.82
60725;BME280;59881;36.722;-4.462;2023-04-27T02:37:06;100709.56;;;16.47;63.85
60725;BME280;59881;36.722;-4.462;2023-04-27T02:39:32;100855.19;;;17.23;63.71
60725;BME280;59881;36.722;-4.462;2023-04-27T02:41:57;100610.47;;;15.87;62.95
60725;BME280;59881;36.722;-4.462;2023-04-27T02:44:23;100724.50;;;16.58;62.54
60725;BME280;59881;36.722;-4.462;2023-04-27T02:46:49;100830.25;;;17.24;62.19
60725;BME280;59881;36.722;-4.462;2023-04-27T02:49:18;100772.16;;;16.90;62.07
60725;BME280;59881;36.722;-4.462;2023-04-27T02:51:44;100823.69;;;17.19;61.99
60725;BME280;59881;36.722;-4.462;2023-04-27T02:54:09;100662.38;;;16.20;61.72
60725;BME280;59881;36.722;-4.462;2023-04-27T02:56:35;100695.69;;;16.44;61.55
60725;BME280;59881;36.722;-4.462;2023-04-27T02:59:01;100762.06;;;16.94;61.61
60725;BME280;59881;36.722;-4.462;2023-04-27T03:01:26;100768.66;;;16.90;61.59
60725;BME280;59881;36.722;-4.462;2023-04-27T03:03:52;100739.78;;;16.56;61.52
60725;BME280;59881;36.722;-4.462;2023-04-27T03:06:17;100662.66;;;16.17;61.66
60725;BME280;59881;36.722;-4.462;2023-04-27T03:08:43;100597.00;;;15.69;61.52
60725;BME280;59881;36.722;-4.462;2023-04-27T03:11:08;100704.91;;;16.40;61.57
60725;BME280;59881;36.722;-4.462;2023-04-27T03:13:34;100778.44;;;16.80;61.77
60725;BME280;59881;36.722;-4.462;2023-04-27T03:16:08;100522.72;;;15.28;61.95
60725;BME280;59881;36.722;-4.462;2023-04-27T03:18:34;100650.34;;;16.06;61.88
60725;BME280;59881;36.722;-4.462;2023-04-27T03:21:10;100767.94;;;16.88;62.19
60725;BME280;59881;36.722;-4.462;2023-04-27T03:23:36;100817.50;;;17.08;62.01
60725;BME280;59881;36.722;-4.462;2023-04-27T03:26:09;100805.19;;;17.07;61.96
60725;BME280;59881;36.722;-4.462;2023-04-27T03:28:35;100802.81;;;17.04;62.10
60725;BME280;59881;36.722;-4.462;2023-04-27T03:31:05;100802.97;;;17.03;62.08
60725;BME280;59881;36.722;-4.462;2023-04-27T03:33:32;100663.38;;;16.19;62.14
60725;BME280;59881;36.722;-4.462;2023-04-27T03:35:58;100790.09;;;16.98;62.08
60725;BME280;59881;36.722;-4.462;2023-04-27T03:38:24;100779.00;;;16.93;62.30
60725;BME280;59881;36.722;-4.462;2023-04-27T03:40:50;100646.97;;;16.04;62.31
60725;BME280;59881;36.722;-4.462;2023-04-27T03:43:17;100788.41;;;16.87;62.42
60725;BME280;59881;36.722;-4.462;2023-04-27T03:45:43;100602.63;;;15.76;62.59
60725;BME280;59881;36.722;-4.462;2023-04-27T03:48:08;100660.69;;;16.00;62.52
60725;BME280;59881;36.722;-4.462;2023-04-27T03:50:34;100593.63;;;15.67;62.62
60725;BME280;59881;36.722;-4.462;2023-04-27T03:52:59;100555.41;;;15.19;62.66
60725;BME280;59881;36.722;-4.462;2023-04-27T03:55:25;100809.41;;;16.81;62.95
60725;BME280;59881;36.722;-4.462;2023-04-27T03:57:51;100775.88;;;16.78;62.92
60725;BME280;59881;36.722;-4.462;2023-04-27T04:00:17;100662.78;;;16.16;63.10
60725;BME280;59881;36.722;-4.462;2023-04-27T04:02:43;100674.56;;;16.13;62.80
60725;BME280;59881;36.722;-4.462;2023-04-27T04:05:09;100772.94;;;16.71;62.97
60725;BME280;59881;36.722;-4.462;2023-04-27T04:07:35;100771.41;;;16.69;62.96
60725;BME280;59881;36.722;-4.462;2023-04-27T04:10:01;100556.13;;;15.41;63.04
60725;BME280;59881;36.722;-4.462;2023-04-27T04:12:26;100772.94;;;16.71;63.18
60725;BME280;59881;36.722;-4.462;2023-04-27T04:14:52;100642.75;;;15.82;63.24
60725;BME280;59881;36.722;-4.462;2023-04-27T04:17:17;100772.69;;;16.74;62.97
60725;BME280;59881;36.722;-4.462;2023-04-27T04:19:43;100742.28;;;16.58;62.45
60725;BME280;59881;36.722;-4.462;2023-04-27T04:22:09;100784.72;;;16.69;62.32
60725;BME280;59881;36.722;-4.462;2023-04-27T04:24:34;100560.88;;;15.37;62.18
60725;BME280;59881;36.722;-4.462;2023-04-27T04:27:00;100600.66;;;15.68;62.51
60725;BME280;59881;36.722;-4.462;2023-04-27T04:29:27;100671.59;;;15.97;62.39
60725;BME280;59881;36.722;-4.462;2023-04-27T04:31:54;100507.88;;;15.06;62.18
60725;BME280;59881;36.722;-4.462;2023-04-27T04:34:20;100571.69;;;15.45;62.04
60725;BME280;59881;36.722;-4.462;2023-04-27T04:36:47;100730.13;;;16.45;62.15
60725;BME280;59881;36.722;-4.462;2023-04-27T04:39:16;100741.19;;;16.41;61.87
60725;BME280;59881;36.722;-4.462;2023-04-27T04:41:44;100612.34;;;15.56;61.81
60725;BME280;59881;36.722;-4.462;2023-04-27T04:44:09;100766.91;;;16.30;62.07
60725;BME280;59881;36.722;-4.462;2023-04-27T04:46:35;100454.44;;;14.40;62.03
60725;BME280;59881;36.722;-4.462;2023-04-27T04:49:01;100758.34;;;16.27;62.31
60725;BME280;59881;36.722;-4.462;2023-04-27T04:51:27;100325.94;;;13.63;62.31
60725;BME280;59881;36.722;-4.462;2023-04-27T04:53:52;100760.19;;;16.26;62.38
60725;BME280;59881;36.722;-4.462;2023-04-27T04:56:18;100730.88;;;15.97;62.46
60725;BME280;59881;36.722;-4.462;2023-04-27T04:58:43;100781.56;;;16.25;62.37
60725;BME280;59881;36.722;-4.462;2023-04-27T05:01:09;100661.44;;;15.61;62.54
60725;BME280;59881;36.722;-4.462;2023-04-27T05:03:35;100564.72;;;15.04;62.70
60725;BME280;59881;36.722;-4.462;2023-04-27T05:06:00;100531.81;;;14.85;62.65
60725;BME280;59881;36.722;-4.462;2023-04-27T05:08:26;100763.41;;;16.30;62.48
60725;BME280;59881;36.722;-4.462;2023-04-27T05:10:52;100658.19;;;15.67;62.39
60725;BME280;59881;36.722;-4.462;2023-04-27T05:13:19;100634.28;;;15.58;62.03
60725;BME280;59881;36.722;-4.462;2023-04-27T05:15:45;100656.16;;;15.71;61.71
60725;BME280;59881;36.722;-4.462;2023-04-27T05:18:11;100691.59;;;16.01;60.87
60725;BME280;59881;36.722;-4.462;2023-04-27T05:20:37;100687.13;;;16.01;60.31
60725;BME280;59881;36.722;-4.462;2023-04-27T05:23:03;100754.34;;;16.52;59.59
60725;BME280;59881;36.722;-4.462;2023-04-27T05:25:32;100641.22;;;15.80;59.24
60725;BME280;59881;36.722;-4.462;2023-04-27T05:27:58;100775.19;;;16.66;58.66
60725;BME280;59881;36.722;-4.462;2023-04-27T05:30:24;100615.38;;;15.72;58.53
60725;BME280;59881;36.722;-4.462;2023-04-27T05:32:50;100566.09;;;15.58;58.10
60725;BME280;59881;36.722;-4.462;2023-04-27T05:35:15;100557.13;;;15.40;57.85
60725;BME280;59881;36.722;-4.462;2023-04-27T05:37:41;100785.03;;;16.95;57.80
60725;BME280;59881;36.722;-4.462;2023-04-27T05:40:07;100787.53;;;17.06;57.56
60725;BME280;59881;36.722;-4.462;2023-04-27T05:42:36;100491.31;;;15.34;57.17
60725;BME280;59881;36.722;-4.462;2023-04-27T05:45:02;100786.22;;;17.40;56.85
60725;BME280;59881;36.722;-4.462;2023-04-27T05:47:29;100789.09;;;17.66;56.42
60725;BME280;59881;36.722;-4.462;2023-04-27T05:49:54;100798.25;;;17.91;55.73
60725;BME280;59881;36.722;-4.462;2023-04-27T05:52:20;100787.09;;;18.33;55.17
60725;BME280;59881;36.722;-4.462;2023-04-27T05:54:46;100556.50;;;17.37;53.71
60725;BME280;59881;36.722;-4.462;2023-04-27T05:57:13;100780.59;;;19.25;51.79
60725;BME280;59881;36.722;-4.462;2023-04-27T05:59:38;100785.44;;;19.74;50.76
60725;BME280;59881;36.722;-4.462;2023-04-27T06:02:04;100331.34;;;17.17;49.10
60725;BME280;59881;36.722;-4.462;2023-04-27T06:04:30;100533.81;;;18.67;48.12
60725;BME280;59881;36.722;-4.462;2023-04-27T06:06:57;100796.81;;;20.18;47.80
60725;BME280;59881;36.722;-4.462;2023-04-27T06:09:23;100299.88;;;17.12;47.59
60725;BME280;59881;36.722;-4.462;2023-04-27T06:11:49;100621.16;;;19.60;47.44
60725;BME280;59881;36.722;-4.462;2023-04-27T06:14:15;100583.84;;;19.84;46.85
60725;BME280;59881;36.722;-4.462;2023-04-27T06:16:41;100769.88;;;20.87;46.56
60725;BME280;59881;36.722;-4.462;2023-04-27T06:19:06;100698.19;;;20.32;47.03
60725;BME280;59881;36.722;-4.462;2023-04-27T06:21:33;100818.59;;;20.99;46.63
60725;BME280;59881;36.722;-4.462;2023-04-27T06:23:59;100720.72;;;20.04;47.06
60725;BME280;59881;36.722;-4.462;2023-04-27T06:26:25;100705.97;;;19.92;47.01
60725;BME280;59881;36.722;-4.462;2023-04-27T06:28:51;100592.06;;;19.06;47.49
60725;BME280;59881;36.722;-4.462;2023-04-27T06:31:16;100852.28;;;20.51;47.72
60725;BME280;59881;36.722;-4.462;2023-04-27T06:33:42;100735.56;;;19.99;47.48
60725;BME280;59881;36.722;-4.462;2023-04-27T06:36:07;100664.72;;;19.52;47.35
60725;BME280;59881;36.722;-4.462;2023-04-27T06:38:33;100841.31;;;20.86;46.74
60725;BME280;59881;36.722;-4.462;2023-04-27T06:40:59;100843.50;;;21.16;46.16
60725;BME280;59881;36.722;-4.462;2023-04-27T06:43:24;100726.03;;;20.63;45.64
60725;BME280;59881;36.722;-4.462;2023-04-27T06:45:50;100844.34;;;21.33;45.78
60725;BME280;59881;36.722;-4.462;2023-04-27T06:48:15;100852.25;;;21.42;46.06
60725;BME280;59881;36.722;-4.462;2023-04-27T06:50:42;100846.91;;;22.06;47.19
60725;BME280;59881;36.722;-4.462;2023-04-27T06:53:08;100714.94;;;21.72;49.67
60725;BME280;59881;36.722;-4.462;2023-04-27T06:55:34;100870.28;;;23.00;53.36
60725;BME280;59881;36.722;-4.462;2023-04-27T06:57:59;100890.88;;;23.30;54.65
60725;BME280;59881;36.722;-4.462;2023-04-27T07:00:25;100744.66;;;22.79;54.90
60725;BME280;59881;36.722;-4.462;2023-04-27T07:02:51;100899.53;;;23.79;55.26
60725;BME280;59881;36.722;-4.462;2023-04-27T07:05:17;100735.59;;;23.03;54.55
60725;BME280;59881;36.722;-4.462;2023-04-27T07:07:43;100871.63;;;24.09;54.38
60725;BME280;59881;36.722;-4.462;2023-04-27T07:10:09;100876.50;;;24.50;53.84
60725;BME280;59881;36.722;-4.462;2023-04-27T07:12:35;100712.00;;;24.30;52.72
60725;BME280;59881;36.722;-4.462;2023-04-27T07:15:01;100864.66;;;25.80;50.43
60725;BME280;59881;36.722;-4.462;2023-04-27T07:17:28;100610.81;;;24.14;50.39
60725;BME280;59881;36.722;-4.462;2023-04-27T07:19:54;100670.53;;;24.68;49.55
60725;BME280;59881;36.722;-4.462;2023-04-27T07:22:20;100858.69;;;25.29;50.80
60725;BME280;59881;36.722;-4.462;2023-04-27T07:24:46;100866.91;;;25.21;51.54
60725;BME280;59881;36.722;-4.462;2023-04-27T07:27:11;100854.69;;;25.81;50.41
60725;BME280;59881;36.722;-4.462;2023-04-27T07:29:39;100853.91;;;26.70;48.70
60725;BME280;59881;36.722;-4.462;2023-04-27T07:32:06;100854.38;;;27.40;46.52
60725;BME280;59881;36.722;-4.462;2023-04-27T07:34:31;100641.84;;;26.39;45.09
60725;BME280;59881;36.722;-4.462;2023-04-27T07:36:57;100620.25;;;26.33;45.08
60725;BME280;59881;36.722;-4.462;2023-04-27T07:39:22;100689.69;;;26.86;44.93
60725;BME280;59881;36.722;-4.462;2023-04-27T07:41:48;100715.13;;;26.16;45.80
60725;BME280;59881;36.722;-4.462;2023-04-27T07:44:19;100670.66;;;26.06;46.36
60725;BME280;59881;36.722;-4.462;2023-04-27T07:46:45;100662.41;;;26.87;45.17
60725;BME280;59881;36.722;-4.462;2023-04-27T07:49:15;100837.84;;;28.85;43.31
60725;BME280;59881;36.722;-4.462;2023-04-27T07:51:40;100583.53;;;27.17;43.17
60725;BME280;59881;36.722;-4.462;2023-04-27T07:54:07;100776.97;;;28.56;42.42
60725;BME280;59881;36.722;-4.462;2023-04-27T07:56:33;100834.00;;;29.94;40.54
60725;BME280;59881;36.722;-4.462;2023-04-27T07:58:58;100426.41;;;28.51;38.57
60725;BME280;59881;36.722;-4.462;2023-04-27T08:01:24;100842.72;;;30.14;39.04
60725;BME280;59881;36.722;-4.462;2023-04-27T08:03:49;100610.59;;;27.23;41.90
60725;BME280;59881;36.722;-4.462;2023-04-27T08:06:17;100712.31;;;27.04;43.43
60725;BME280;59881;36.722;-4.462;2023-04-27T08:08:42;100842.94;;;27.38;44.89
60725;BME280;59881;36.722;-4.462;2023-04-27T08:11:11;100741.22;;;27.31;45.21
60725;BME280;59881;36.722;-4.462;2023-04-27T08:13:37;100701.41;;;28.66;42.62
60725;BME280;59881;36.722;-4.462;2023-04-27T08:16:03;100664.94;;;29.80;39.51
60725;BME280;59881;36.722;-4.462;2023-04-27T08:18:28;100817.78;;;32.02;37.28
60725;BME280;59881;36.722;-4.462;2023-04-27T08:20:54;100715.94;;;32.37;35.58
60725;BME280;59881;36.722;-4.462;2023-04-27T08:23:20;100819.69;;;33.60;34.32
60725;BME280;59881;36.722;-4.462;2023-04-27T08:25:46;100767.16;;;33.36;33.88
60725;BME280;59881;36.722;-4.462;2023-04-27T08:28:12;100822.97;;;34.01;33.13
60725;BME280;59881;36.722;-4.462;2023-04-27T08:30:37;100827.38;;;34.52;32.43
60725;BME280;59881;36.722;-4.462;2023-04-27T08:33:03;100820.19;;;35.05;31.40
60725;BME280;59881;36.722;-4.462;2023-04-27T08:35:28;100785.97;;;34.70;31.25
60725;BME280;59881;36.722;-4.462;2023-04-27T08:37:54;100828.97;;;34.48;31.83
60725;BME280;59881;36.722;-4.462;2023-04-27T08:40:20;100700.75;;;33.09;32.51
60725;BME280;59881;36.722;-4.462;2023-04-27T08:42:56;100807.69;;;33.06;33.59
60725;BME280;59881;36.722;-4.462;2023-04-27T08:45:23;100634.47;;;31.78;34.45
60725;BME280;59881;36.722;-4.462;2023-04-27T08:47:48;100835.91;;;32.37;34.65
60725;BME280;59881;36.722;-4.462;2023-04-27T08:50:14;100772.63;;;32.06;35.00
60725;BME280;59881;36.722;-4.462;2023-04-27T08:52:46;100753.53;;;33.36;33.23
60725;BME280;59881;36.722;-4.462;2023-04-27T08:55:12;100812.03;;;35.10;31.58
60725;BME280;59881;36.722;-4.462;2023-04-27T08:57:37;100839.31;;;35.80;30.47
60725;BME280;59881;36.722;-4.462;2023-04-27T09:00:04;100685.75;;;35.54;29.69
60725;BME280;59881;36.722;-4.462;2023-04-27T09:02:48;100814.56;;;36.33;29.08
60725;BME280;59881;36.722;-4.462;2023-04-27T09:05:21;100820.44;;;36.67;28.66
60725;BME280;59881;36.722;-4.462;2023-04-27T09:08:01;100732.84;;;36.45;28.43
60725;BME280;59881;36.722;-4.462;2023-04-27T09:10:32;100809.97;;;37.25;28.14
60725;BME280;59881;36.722;-4.462;2023-04-27T09:13:07;100783.34;;;37.00;27.68
60725;BME280;59881;36.722;-4.462;2023-04-27T09:15:57;100684.22;;;35.74;28.28
60725;BME280;59881;36.722;-4.462;2023-04-27T09:18:23;100839.03;;;36.50;28.86
60725;BME280;59881;36.722;-4.462;2023-04-27T09:20:50;100630.66;;;35.40;28.46
60725;BME280;59881;36.722;-4.462;2023-04-27T09:23:32;100810.78;;;37.31;28.01
60725;BME280;59881;36.722;-4.462;2023-04-27T09:25:59;100774.41;;;37.70;26.91
60725;BME280;59881;36.722;-4.462;2023-04-27T09:28:26;100818.59;;;37.84;26.78
60725;BME280;59881;36.722;-4.462;2023-04-27T09:30:55;100810.25;;;38.59;25.95
60725;BME280;59881;36.722;-4.462;2023-04-27T09:33:28;100771.88;;;39.02;24.72
60725;BME280;59881;36.722;-4.462;2023-04-27T09:35:56;100832.28;;;39.23;24.30
60725;BME280;59881;36.722;-4.462;2023-04-27T09:38:22;100814.59;;;39.00;24.79
60725;BME280;59881;36.722;-4.462;2023-04-27T09:40:49;100811.22;;;39.08;24.94
60725;BME280;59881;36.722;-4.462;2023-04-27T09:43:15;100717.34;;;39.52;23.89
60725;BME280;59881;36.722;-4.462;2023-04-27T09:45:41;100818.25;;;41.05;22.92
60725;BME280;59881;36.722;-4.462;2023-04-27T09:48:07;100837.13;;;40.46;23.21
60725;BME280;59881;36.722;-4.462;2023-04-27T09:50:38;100821.66;;;39.64;23.95
60725;BME280;59881;36.722;-4.462;2023-04-27T09:53:16;100833.78;;;39.87;23.87
60725;BME280;59881;36.722;-4.462;2023-04-27T09:55:47;100825.25;;;40.65;23.04
60725;BME280;59881;36.722;-4.462;2023-04-27T09:58:28;100831.00;;;40.49;23.00
60725;BME280;59881;36.722;-4.462;2023-04-27T10:09:15;100782.88;;;39.56;24.04
60725;BME280;59881;36.722;-4.462;2023-04-27T10:11:48;100522.03;;;38.12;23.60
60725;BME280;59881;36.722;-4.462;2023-04-27T10:14:23;100837.91;;;39.90;23.80
60725;BME280;59881;36.722;-4.462;2023-04-27T10:16:56;100835.16;;;40.09;23.83
60725;BME280;59881;36.722;-4.462;2023-04-27T10:19:23;100691.25;;;38.97;23.70
60725;BME280;59881;36.722;-4.462;2023-04-27T10:21:57;100855.81;;;38.76;24.54
60725;BME280;59881;36.722;-4.462;2023-04-27T10:24:51;100830.22;;;39.33;24.62
60725;BME280;59881;36.722;-4.462;2023-04-27T10:27:18;100695.78;;;38.82;24.23
60725;BME280;59881;36.722;-4.462;2023-04-27T10:29:46;100720.72;;;40.25;23.02
60725;BME280;59881;36.722;-4.462;2023-04-27T10:32:24;100827.84;;;40.18;23.23
60725;BME280;59881;36.722;-4.462;2023-04-27T10:35:07;100804.81;;;38.49;24.90
60725;BME280;59881;36.722;-4.462;2023-04-27T10:37:41;100822.59;;;37.32;26.72
60725;BME280;59881;36.722;-4.462;2023-04-27T10:40:08;100828.91;;;35.82;28.88
60725;BME280;59881;36.722;-4.462;2023-04-27T10:42:35;100752.81;;;33.24;31.75
60725;BME280;59881;36.722;-4.462;2023-04-27T10:45:01;100847.66;;;31.62;35.33
60725;BME280;59881;36.722;-4.462;2023-04-27T10:47:38;100867.34;;;30.01;38.36
60725;BME280;59881;36.722;-4.462;2023-04-27T10:50:04;100864.44;;;29.02;40.38
60725;BME280;59881;36.722;-4.462;2023-04-27T10:52:30;100685.06;;;27.26;41.26
60725;BME280;59881;36.722;-4.462;2023-04-27T10:54:56;100691.31;;;26.93;42.75
60725;BME280;59881;36.722;-4.462;2023-04-27T10:57:22;100756.81;;;26.89;44.16
60725;BME280;59881;36.722;-4.462;2023-04-27T10:59:52;100861.00;;;27.04;45.59
60725;BME280;59881;36.722;-4.462;2023-04-27T11:02:27;100863.19;;;26.61;46.13
60725;BME280;59881;36.722;-4.462;2023-04-27T11:04:54;100871.78;;;26.30;47.53
60725;BME280;59881;36.722;-4.462;2023-04-27T11:07:24;100749.31;;;25.19;47.50
60725;BME280;59881;36.722;-4.462;2023-04-27T11:09:50;100746.03;;;24.74;48.12
60725;BME280;59881;36.722;-4.462;2023-04-27T11:12:16;100681.44;;;24.16;48.16
60725;BME280;59881;36.722;-4.462;2023-04-27T11:14:43;100872.59;;;25.11;49.19
60725;BME280;59881;36.722;-4.462;2023-04-27T11:17:08;100722.41;;;23.97;50.52
60725;BME280;59881;36.722;-4.462;2023-04-27T11:19:45;100755.78;;;24.17;51.12
60725;BME280;59881;36.722;-4.462;2023-04-27T11:22:13;100868.44;;;24.87;51.15
60725;BME280;59881;36.722;-4.462;2023-04-27T11:24:51;100870.25;;;24.65;51.71
60725;BME280;59881;36.722;-4.462;2023-04-27T11:27:17;100869.66;;;24.18;53.09
60725;BME280;59881;36.722;-4.462;2023-04-27T11:29:43;100756.94;;;23.34;53.65
60725;BME280;59881;36.722;-4.462;2023-04-27T11:32:22;100857.25;;;24.02;53.64
60725;BME280;59881;36.722;-4.462;2023-04-27T11:34:53;100633.84;;;22.85;52.85
60725;BME280;59881;36.722;-4.462;2023-04-27T11:37:23;100845.44;;;24.18;52.99
60725;BME280;59881;36.722;-4.462;2023-04-27T11:39:50;100728.28;;;23.71;52.89
60725;BME280;59881;36.722;-4.462;2023-04-27T11:42:17;100844.63;;;24.69;52.44
60725;BME280;59881;36.722;-4.462;2023-04-27T11:44:59;100848.84;;;24.99;51.35
60725;BME280;59881;36.722;-4.462;2023-04-27T11:47:27;100844.81;;;25.32;50.43
60725;BME280;59881;36.722;-4.462;2023-04-27T11:49:58;100833.28;;;25.45;49.83
60725;BME280;59881;36.722;-4.462;2023-04-27T11:52:27;100817.91;;;25.73;49.70
60725;BME280;59881;36.722;-4.462;2023-04-27T11:54:53;100678.31;;;25.12;48.93
60725;BME280;59881;36.722;-4.462;2023-04-27T11:57:34;100782.38;;;26.05;48.07
60725;BME280;59881;36.722;-4.462;2023-04-27T12:00:01;100769.06;;;25.96;48.29
60725;BME280;59881;36.722;-4.462;2023-04-27T12:02:34;100809.84;;;26.15;48.19
60725;BME280;59881;36.722;-4.462;2023-04-27T12:05:01;100831.03;;;25.83;48.89
60725;BME280;59881;36.722;-4.462;2023-04-27T12:07:27;100774.53;;;25.68;49.39
60725;BME280;59881;36.722;-4.462;2023-04-27T12:09:52;100796.31;;;25.73;49.12
60725;BME280;59881;36.722;-4.462;2023-04-27T12:12:19;100790.59;;;25.55;50.10
60725;BME280;59881;36.722;-4.462;2023-04-27T12:14:47;100781.09;;;25.59;50.22
60725;BME280;59881;36.722;-4.462;2023-04-27T12:17:12;100787.41;;;25.38;49.86
60725;BME280;59881;36.722;-4.462;2023-04-27T12:19:38;100777.53;;;25.24;50.03
60725;BME280;59881;36.722;-4.462;2023-04-27T12:22:04;100767.00;;;24.79;50.05
60725;BME280;59881;36.722;-4.462;2023-04-27T12:24:30;100789.59;;;24.78;50.32
60725;BME280;59881;36.722;-4.462;2023-04-27T12:26:56;100784.59;;;24.53;51.77
60725;BME280;59881;36.722;-4.462;2023-04-27T12:29:22;100811.94;;;24.57;51.97
60725;BME280;59881;36.722;-4.462;2023-04-27T12:31:48;100738.22;;;24.22;52.00
60725;BME280;59881;36.722;-4.462;2023-04-27T12:34:14;100783.81;;;24.23;51.75
60725;BME280;59881;36.722;-4.462;2023-04-27T12:36:40;100633.13;;;23.06;52.26
60725;BME280;59881;36.722;-4.462;2023-04-27T12:39:14;100783.56;;;23.88;53.06
60725;BME280;59881;36.722;-4.462;2023-04-27T12:41:45;100777.72;;;23.70;53.42
60725;BME280;59881;36.722;-4.462;2023-04-27T12:44:12;100691.03;;;23.08;53.78
60725;BME280;59881;36.722;-4.462;2023-04-27T12:46:39;100794.63;;;23.79;54.08
60725;BME280;59881;36.722;-4.462;2023-04-27T12:49:04;100777.34;;;23.73;53.43